createdAt,value
2022-08-27T00:03:24.762Z,7.60
2022-08-27T00:08:10.146Z,6.60
2022-08-27T00:12:55.707Z,8.20
2022-08-27T00:17:39.708Z,8.43
2022-08-27T00:22:24.837Z,8.20
2022-08-27T00:27:08.465Z,8.23
2022-08-27T00:31:53.300Z,6.27
2022-08-27T00:36:42.381Z,6.83
2022-08-27T00:41:28.150Z,7.13
2022-08-27T00:46:19.234Z,6.53
2022-08-27T00:51:03.256Z,8.27
2022-08-27T00:55:56.141Z,8.70
2022-08-27T01:00:41.548Z,11.13
2022-08-27T01:05:27.633Z,9.07
2022-08-27T01:10:14.908Z,12.27
2022-08-27T01:14:58.612Z,13.20
2022-08-27T01:19:48.102Z,9.13
2022-08-27T01:24:37.856Z,7.97
2022-08-27T01:29:22.067Z,16.37
2022-08-27T01:34:07.252Z,8.43
2022-08-27T01:38:51.087Z,10.03
2022-08-27T01:43:36.649Z,7.93
2022-08-27T01:48:21.919Z,9.40
2022-08-27T01:53:08.050Z,10.77
2022-08-27T01:57:51.895Z,7.40
2022-08-27T02:02:37.338Z,8.50
2022-08-27T02:07:20.980Z,9.00
2022-08-27T02:12:05.931Z,9.23
2022-08-27T02:16:52.072Z,7.87
2022-08-27T02:21:38.280Z,8.63
2022-08-27T02:26:24.317Z,9.48
2022-08-27T02:31:08.294Z,9.37
2022-08-27T02:35:51.917Z,14.47
2022-08-27T02:40:37.686Z,10.63
2022-08-27T02:45:21.977Z,9.73
2022-08-27T02:50:06.646Z,9.13
2022-08-27T02:54:50.310Z,10.00
2022-08-27T02:59:35.648Z,8.13
2022-08-27T03:04:20.128Z,7.70
2022-08-27T03:09:04.116Z,8.13
2022-08-27T03:13:47.935Z,11.47
2022-08-27T03:18:33.240Z,11.17
2022-08-27T03:23:17.618Z,13.27
2022-08-27T03:28:01.119Z,15.37
2022-08-27T03:32:44.870Z,13.40
2022-08-27T03:37:29.938Z,12.67
2022-08-27T03:42:13.463Z,12.63
2022-08-27T03:46:57.002Z,15.43
2022-08-27T03:51:40.830Z,16.27
2022-08-27T03:56:25.787Z,13.00
2022-08-27T04:01:10.087Z,15.07
2022-08-27T04:05:58.137Z,14.73
2022-08-27T04:10:41.878Z,16.23
2022-08-27T04:15:27.661Z,18.03
2022-08-27T04:20:33.987Z,17.27
2022-08-27T04:25:16.129Z,16.93
2022-08-27T04:30:01.481Z,16.20
2022-08-27T04:34:46.436Z,16.17
2022-08-27T04:39:30.735Z,20.47
2022-08-27T04:44:14.271Z,15.00
2022-08-27T04:48:59.082Z,18.87
2022-08-27T04:53:44.071Z,17.50
2022-08-27T04:58:27.714Z,17.60
2022-08-27T05:03:11.349Z,18.57
2022-08-27T05:07:54.919Z,21.83
2022-08-27T05:12:39.837Z,19.37
2022-08-27T05:17:23.424Z,17.80
2022-08-27T05:22:07.019Z,17.67
2022-08-27T05:26:51.318Z,19.57
2022-08-27T05:31:36.965Z,14.57
2022-08-27T05:36:23.145Z,15.17
2022-08-27T05:41:09.758Z,10.43
2022-08-27T05:45:53.868Z,10.20
2022-08-27T05:50:42.168Z,11.00
2022-08-27T05:55:25.756Z,10.57
2022-08-27T06:00:27.913Z,12.15
2022-08-27T06:05:11.899Z,26.05
2022-08-27T06:09:59.147Z,9.27
2022-08-27T06:14:43.913Z,8.07
2022-08-27T06:19:27.560Z,9.55
2022-08-27T06:24:13.610Z,11.85
2022-08-27T06:29:02.950Z,8.60
2022-08-27T06:33:48.461Z,15.95
2022-08-27T06:38:32.101Z,11.30
2022-08-27T06:43:16.184Z,13.13
2022-08-27T06:48:01.143Z,11.17
2022-08-27T06:52:45.406Z,15.30
2022-08-27T06:57:29.070Z,13.77
2022-08-27T07:02:12.945Z,14.73
2022-08-27T07:06:58.225Z,13.85
2022-08-27T07:11:42.049Z,14.45
2022-08-27T07:16:27.445Z,15.77
2022-08-27T07:21:12.443Z,11.88
2022-08-27T07:25:57.603Z,11.73
2022-08-27T07:30:41.725Z,8.40
2022-08-27T07:35:25.502Z,7.97
2022-08-27T07:40:11.966Z,11.18
2022-08-27T07:44:59.526Z,10.95
2022-08-27T07:49:43.451Z,8.30
2022-08-27T07:54:27.215Z,9.57
2022-08-27T07:59:11.326Z,8.45
2022-08-27T08:03:56.549Z,7.85
2022-08-27T08:08:41.228Z,8.10
2022-08-27T08:13:27.563Z,11.07
2022-08-27T08:18:13.493Z,8.00
2022-08-27T08:23:00.635Z,6.70
2022-08-27T08:27:46.323Z,7.38
2022-08-27T08:32:32.923Z,8.40
2022-08-27T08:37:18.122Z,7.38
2022-08-27T08:42:09.625Z,7.15
2022-08-27T08:47:00.974Z,4.72
2022-08-27T08:51:46.874Z,5.88
2022-08-27T08:56:42.412Z,5.63
2022-08-27T09:01:29.808Z,6.57
2022-08-27T09:06:25.028Z,7.20
2022-08-27T09:11:18.981Z,5.82
2022-08-27T09:16:06.434Z,5.20
2022-08-27T09:20:57.246Z,5.60
2022-08-27T09:25:45.504Z,5.75
2022-08-27T09:30:34.031Z,5.40
2022-08-27T09:35:19.209Z,5.22
2022-08-27T09:40:13.688Z,5.80
2022-08-27T09:45:11.846Z,8.27
2022-08-27T09:50:08.507Z,5.53
2022-08-27T09:54:56.211Z,4.43
2022-08-27T09:59:45.188Z,5.28
2022-08-27T10:04:50.136Z,5.75
2022-08-27T10:09:39.915Z,5.53
2022-08-27T10:14:30.179Z,7.25
2022-08-27T10:19:26.087Z,6.95
2022-08-27T10:24:21.947Z,6.00
2022-08-27T10:29:15.553Z,6.65
2022-08-27T10:34:12.678Z,6.70
2022-08-27T10:39:05.323Z,6.80
2022-08-27T10:44:17.239Z,6.50
2022-08-27T10:49:09.059Z,6.35
2022-08-27T10:54:06.388Z,6.10
2022-08-27T10:59:13.861Z,5.90
2022-08-27T11:04:04.937Z,6.10
2022-08-27T11:08:54.403Z,4.70
2022-08-27T11:13:42.946Z,5.65
2022-08-27T11:18:38.825Z,6.13
2022-08-27T11:23:28.546Z,5.68
2022-08-27T11:28:12.992Z,4.78
2022-08-27T11:33:16.553Z,5.95
2022-08-27T11:38:27.883Z,5.45
2022-08-27T11:43:15.081Z,5.00
2022-08-27T11:48:02.622Z,5.20
2022-08-27T11:52:59.529Z,7.15
2022-08-27T11:57:45.304Z,6.53
2022-08-27T12:02:30.825Z,5.63
2022-08-27T12:07:35.133Z,5.38
2022-08-27T12:12:24.782Z,6.55
2022-08-27T12:17:18.403Z,5.47
2022-08-27T12:22:29.576Z,6.82
2022-08-27T12:27:36.264Z,5.88
2022-08-27T12:32:28.751Z,4.63
2022-08-27T12:37:15.027Z,7.80
2022-08-27T12:41:58.752Z,5.00
2022-08-27T12:46:50.301Z,5.03
2022-08-27T12:51:38.447Z,4.40
2022-08-27T12:56:51.274Z,4.40
2022-08-27T13:01:56.958Z,5.60
2022-08-27T13:06:47.196Z,5.45
2022-08-27T13:11:33.221Z,4.35
2022-08-27T13:16:20.229Z,7.80
2022-08-27T13:21:10.340Z,5.03
2022-08-27T13:26:00.646Z,5.82
2022-08-27T13:30:46.962Z,6.43
2022-08-27T13:35:32.897Z,4.45
2022-08-27T13:40:31.100Z,5.30
2022-08-27T13:45:14.828Z,7.63
2022-08-27T13:50:06.664Z,6.43
2022-08-27T13:54:55.962Z,5.18
2022-08-27T13:59:42.996Z,4.80
2022-08-27T14:04:36.871Z,4.47
2022-08-27T14:09:25.537Z,3.90
2022-08-27T14:14:09.843Z,3.72
2022-08-27T14:18:59.620Z,5.13
2022-08-27T14:23:43.565Z,3.67
2022-08-27T14:28:27.365Z,4.68
2022-08-27T14:33:13.004Z,4.25
2022-08-27T14:37:58.723Z,4.88
2022-08-27T14:42:42.642Z,4.82
2022-08-27T14:47:26.448Z,6.65
2022-08-27T14:52:11.771Z,6.50
2022-08-27T14:56:59.170Z,5.18
2022-08-27T15:01:42.996Z,5.82
2022-08-27T15:06:27.669Z,6.78
2022-08-27T15:11:17.244Z,6.05
2022-08-27T15:16:02.482Z,5.50
2022-08-27T15:20:46.183Z,6.22
2022-08-27T15:25:31.110Z,6.40
2022-08-27T15:30:16.948Z,5.95
2022-08-27T15:35:08.265Z,7.03
2022-08-27T15:39:51.979Z,7.13
2022-08-27T15:44:37.206Z,7.15
2022-08-27T15:49:21.233Z,6.95
2022-08-27T15:54:06.571Z,8.43
2022-08-27T15:58:50.417Z,10.60
2022-08-27T16:03:35.515Z,9.50
2022-08-27T16:08:19.859Z,13.77
2022-08-27T16:13:05.292Z,14.45
2022-08-27T16:17:57.864Z,13.73
2022-08-27T16:22:42.535Z,11.57
2022-08-27T16:27:26.291Z,9.65
2022-08-27T16:32:15.690Z,11.13
2022-08-27T16:37:00.339Z,8.70
2022-08-27T16:41:44.244Z,6.97
2022-08-27T16:46:27.997Z,8.18
2022-08-27T16:51:18.302Z,5.35
2022-08-27T16:56:02.618Z,6.05
2022-08-27T17:00:47.795Z,7.93
2022-08-27T17:05:34.047Z,5.68
2022-08-27T17:10:21.550Z,4.88
2022-08-27T17:15:06.370Z,7.25
2022-08-27T17:19:50.177Z,5.55
2022-08-27T17:24:34.088Z,5.97
2022-08-27T17:29:21.068Z,5.90
2022-08-27T17:34:07.228Z,7.70
2022-08-27T17:38:51.462Z,8.98
2022-08-27T17:43:35.172Z,9.82
2022-08-27T17:48:26.040Z,8.02
2022-08-27T17:53:10.996Z,7.38
2022-08-27T17:57:55.080Z,6.60
2022-08-27T18:02:41.160Z,6.65
2022-08-27T18:07:26.989Z,5.70
2022-08-27T18:12:12.679Z,6.65
2022-08-27T18:16:56.983Z,7.20
2022-08-27T18:21:46.556Z,9.30
2022-08-27T18:26:33.615Z,7.90
2022-08-27T18:31:21.711Z,8.85
2022-08-27T18:36:07.072Z,9.27
2022-08-27T18:40:51.846Z,9.65
2022-08-27T18:45:38.776Z,22.05
2022-08-27T18:50:24.469Z,8.73
2022-08-27T18:55:12.591Z,11.65
2022-08-27T18:59:56.764Z,8.10
2022-08-27T19:04:43.195Z,11.25
2022-08-27T19:09:27.826Z,11.10
2022-08-27T19:14:11.989Z,13.10
2022-08-27T19:19:00.900Z,13.48
2022-08-27T19:23:46.357Z,15.18
2022-08-27T19:28:39.248Z,13.85
2022-08-27T19:33:23.813Z,13.00
2022-08-27T19:38:08.835Z,13.48
2022-08-27T19:42:54.661Z,14.10
2022-08-27T19:47:39.409Z,12.50
2022-08-27T19:52:23.298Z,14.13
2022-08-27T19:57:08.028Z,11.68
2022-08-27T20:01:54.766Z,14.18
2022-08-27T20:06:39.287Z,10.82
2022-08-27T20:11:23.505Z,10.93
2022-08-27T20:16:07.878Z,14.07
2022-08-27T20:20:59.892Z,13.90
2022-08-27T20:26:00.475Z,10.90
2022-08-27T20:30:48.726Z,9.68
2022-08-27T20:35:34.037Z,9.63
2022-08-27T20:40:22.254Z,14.43
2022-08-27T20:45:11.878Z,12.82
2022-08-27T20:49:56.921Z,12.85
2022-08-27T20:54:42.484Z,12.60
2022-08-27T20:59:45.821Z,11.57
2022-08-27T21:04:30.030Z,14.93
2022-08-27T21:09:14.143Z,10.63
2022-08-27T21:13:59.324Z,22.97
2022-08-27T21:18:46.078Z,13.48
2022-08-27T21:23:32.407Z,13.30
2022-08-27T21:28:17.297Z,18.87
2022-08-27T21:33:03.104Z,18.90
2022-08-27T21:37:50.330Z,16.67
2022-08-27T21:42:36.585Z,18.83
2022-08-27T21:47:20.767Z,18.93
2022-08-27T21:52:07.931Z,20.77
2022-08-27T21:56:53.617Z,22.83
2022-08-27T22:06:28.783Z,23.83
2022-08-27T22:11:13.481Z,23.80
2022-08-27T22:15:59.852Z,23.63
2022-08-27T22:20:46.288Z,21.67
2022-08-27T22:25:30.667Z,21.07
2022-08-27T22:30:16.266Z,21.23
2022-08-27T22:35:01.650Z,23.77
2022-08-27T22:39:45.577Z,24.07
2022-08-27T22:44:30.012Z,24.73
2022-08-27T22:49:13.876Z,25.40
2022-08-27T22:53:59.383Z,24.83
2022-08-27T22:58:45.817Z,22.57
2022-08-27T23:03:31.179Z,23.37
2022-08-27T23:08:15.776Z,25.27
2022-08-27T23:13:01.580Z,24.23
2022-08-27T23:17:45.371Z,22.73
2022-08-27T23:22:29.930Z,21.07
2022-08-27T23:27:33.448Z,26.30
2022-08-27T23:32:19.206Z,20.20
2022-08-27T23:37:03.348Z,16.70
2022-08-27T23:41:47.437Z,15.77
2022-08-27T23:46:31.933Z,16.77
2022-08-27T23:51:17.365Z,17.90
2022-08-27T23:56:01.148Z,19.23
